Time;durP1;ratioP1;P1;durP2;ratioP2;P2;SDS_P1;SDS_P2;PMS_P1;PMS_P2;Temp;Humidity;BMP_temperature;BMP_pressure;BME280_temperature;BME280_humidity;BME280_pressure;Samples;Min_cycle;Max_cycle;Signal;HPM_P1;HPM_P2
2022/02/27 00:01:34;;;;;;;7.80;3.42;;;;;;;3.10;79.19;99528.00;4109663;28;20216;-83
2022/02/27 00:03:38;;;;;;;9.70;3.65;;;;;;;3.15;78.93;99526.19;4103813;28;20308;-83
2022/02/27 00:05:44;;;;;;;8.25;3.65;;;;;;;3.14;79.39;99529.63;4121124;28;20633;-83
2022/02/27 00:07:47;;;;;;;8.50;3.65;;;;;;;3.13;79.21;99526.22;4105558;28;20717;-83
2022/02/27 00:09:50;;;;;;;9.73;3.65;;;;;;;3.13;79.21;99525.34;4103788;28;20787;-83
2022/02/27 00:11:54;;;;;;;6.47;3.35;;;;;;;3.15;78.69;99518.47;4127568;28;20495;-83
2022/02/27 00:13:57;;;;;;;10.57;3.83;;;;;;;3.16;78.51;99517.56;4118348;28;20196;-82
2022/02/27 00:16:00;;;;;;;10.30;4.15;;;;;;;3.13;78.68;99517.59;4110912;28;20209;-82
2022/02/27 00:18:05;;;;;;;9.75;3.78;;;;;;;3.14;78.76;99509.84;4105617;28;20213;-83
2022/02/27 00:20:09;;;;;;;6.88;3.40;;;;;;;3.13;79.11;99517.59;4126148;28;20219;-83
2022/02/27 00:22:14;;;;;;;9.75;3.97;;;;;;;3.06;79.29;99521.19;4124381;28;20236;-83
2022/02/27 00:24:17;;;;;;;10.65;3.42;;;;;;;3.05;79.58;99515.19;4124577;28;20230;-83
2022/02/27 00:26:20;;;;;;;9.27;3.97;;;;;;;3.04;79.33;99523.78;4122044;28;20254;-83
2022/02/27 00:28:23;;;;;;;9.23;3.65;;;;;;;3.01;79.64;99525.56;4125711;28;20209;-83
2022/02/27 00:30:26;;;;;;;11.32;3.70;;;;;;;2.97;79.82;99524.75;4119561;28;20277;-82
2022/02/27 00:32:29;;;;;;;7.55;3.75;;;;;;;2.97;79.84;99522.16;4125686;28;20696;-83
2022/02/27 00:34:34;;;;;;;7.88;3.55;;;;;;;2.94;79.90;99529.94;4135046;28;20632;-85
2022/02/27 00:36:37;;;;;;;8.68;3.25;;;;;;;2.94;79.90;99529.09;4122848;28;20212;-83
2022/02/27 00:38:40;;;;;;;11.15;3.40;;;;;;;2.91;80.42;99524.00;4123915;28;20205;-83
2022/02/27 00:40:46;;;;;;;9.70;3.33;;;;;;;2.90;80.25;99530.88;4133003;28;20228;-83
2022/02/27 00:42:49;;;;;;;12.13;3.83;;;;;;;2.88;80.28;99529.19;4122288;28;20265;-83
2022/02/27 00:44:54;;;;;;;8.63;3.58;;;;;;;2.87;80.71;99520.63;4124060;28;20671;-83
2022/02/27 00:46:57;;;;;;;8.13;3.90;;;;;;;2.86;80.74;99516.34;4121572;28;20247;-85
2022/02/27 00:49:00;;;;;;;11.35;4.65;;;;;;;2.83;80.75;99525.84;4110875;28;20222;-82
2022/02/27 00:51:05;;;;;;;10.75;3.85;;;;;;;2.83;80.62;99529.25;4117859;28;20214;-83
2022/02/27 00:53:08;;;;;;;5.90;3.47;;;;;;;2.83;80.88;99526.69;4105250;28;20662;-83
2022/02/27 00:55:11;;;;;;;7.97;3.38;;;;;;;2.80;81.29;99529.31;4122165;28;20208;-83
2022/02/27 00:57:14;;;;;;;6.90;3.95;;;;;;;2.80;81.24;99518.16;4126235;28;20216;-83
2022/02/27 00:59:19;;;;;;;7.90;4.20;;;;;;;2.79;81.64;99521.59;4128053;28;20213;-83
2022/02/27 01:01:22;;;;;;;7.65;3.65;;;;;;;2.80;81.58;99529.31;4124916;28;20686;-83
2022/02/27 01:03:25;;;;;;;9.60;4.38;;;;;;;2.77;81.74;99525.94;4124418;28;20657;-83
2022/02/27 01:05:28;;;;;;;9.32;4.25;;;;;;;2.79;81.64;99521.59;4123218;28;20223;-83
2022/02/27 01:07:33;;;;;;;10.02;3.88;;;;;;;2.82;81.90;99521.56;4118253;28;20235;-83
2022/02/27 01:09:36;;;;;;;10.55;3.65;;;;;;;2.80;81.97;99513.84;4124795;28;20579;-83
2022/02/27 01:11:39;;;;;;;9.52;3.63;;;;;;;2.81;82.05;99514.69;4102459;28;20596;-83
2022/02/27 01:13:43;;;;;;;10.55;4.30;;;;;;;2.79;82.46;99516.44;4118068;28;20575;-83
2022/02/27 01:15:46;;;;;;;12.25;4.07;;;;;;;2.82;82.32;99511.25;4133303;28;20208;-83
2022/02/27 01:17:49;;;;;;;10.13;4.38;;;;;;;2.82;82.27;99518.97;4105852;28;20264;-83
2022/02/27 01:19:52;;;;;;;13.90;3.95;;;;;;;2.82;82.42;99517.25;4103208;28;20209;-83
2022/02/27 01:21:55;;;;;;;10.60;4.18;;;;;;;2.80;82.39;99507.88;4120740;28;20259;-83
2022/02/27 01:24:00;;;;;;;15.20;4.60;;;;;;;2.77;82.41;99510.47;4115777;28;20251;-83
2022/02/27 01:26:03;;;;;;;9.98;4.00;;;;;;;2.75;82.49;99503.63;4119273;28;20228;-83
2022/02/27 01:28:08;;;;;;;8.77;5.35;;;;;;;2.76;82.61;99501.03;4107827;28;20213;-83
2022/02/27 01:30:12;;;;;;;7.45;4.35;;;;;;;2.77;82.62;99502.75;4120113;28;20204;-83
2022/02/27 01:32:16;;;;;;;11.82;4.15;;;;;;;2.77;82.67;99501.88;4122765;28;21117;-83
2022/02/27 01:34:20;;;;;;;10.38;4.50;;;;;;;2.76;82.64;99495.06;4105910;28;20213;-83
2022/02/27 01:36:26;;;;;;;8.70;4.07;;;;;;;2.75;82.86;99499.34;4105971;28;20208;-84
2022/02/27 01:38:29;;;;;;;8.60;4.18;;;;;;;2.75;82.60;99499.34;4118858;28;20212;-83
2022/02/27 01:40:33;;;;;;;8.63;4.32;;;;;;;2.75;82.61;99491.59;4125897;28;20682;-83
2022/02/27 01:42:36;;;;;;;7.22;4.10;;;;;;;2.74;82.55;99497.66;4118485;28;20670;-83
2022/02/27 01:44:39;;;;;;;11.82;4.40;;;;;;;2.73;82.79;99488.22;4117704;28;20216;-83
2022/02/27 01:47:02;;;;;;;11.85;4.90;;;;;;;2.70;82.70;99490.00;4119572;28;20273;-83
2022/02/27 01:49:05;;;;;;;10.43;4.72;;;;;;;2.70;83.04;99490.00;4121451;28;20206;-83
2022/02/27 01:51:09;;;;;;;7.60;4.15;;;;;;;2.65;83.48;99492.63;4119472;28;20263;-83
2022/02/27 01:53:13;;;;;;;12.27;4.88;;;;;;;2.69;83.22;99503.72;4128342;28;20212;-83
2022/02/27 01:55:16;;;;;;;12.95;4.68;;;;;;;2.67;83.10;99495.19;4108310;28;20251;-82
2022/02/27 01:57:21;;;;;;;7.60;4.30;;;;;;;2.65;83.44;99487.50;4120060;28;20212;-83
2022/02/27 01:59:24;;;;;;;8.75;4.45;;;;;;;2.66;83.35;99494.34;4096986;28;20775;-83
2022/02/27 02:01:27;;;;;;;8.77;4.57;;;;;;;2.67;83.81;99488.31;4120183;28;20261;-83
2022/02/27 02:03:30;;;;;;;8.60;4.30;;;;;;;2.67;83.39;99488.31;4123236;28;20244;-83
2022/02/27 02:05:33;;;;;;;11.95;4.15;;;;;;;2.66;83.16;99488.31;4120775;28;20232;-83
2022/02/27 02:07:36;;;;;;;10.07;4.45;;;;;;;2.66;83.43;99488.31;4119730;28;20261;-83
2022/02/27 02:09:41;;;;;;;10.18;5.07;;;;;;;2.62;83.83;99490.09;4115739;28;20756;-83
2022/02/27 02:11:45;;;;;;;12.85;4.53;;;;;;;2.65;83.51;99487.50;4121793;28;20582;-83
2022/02/27 02:13:51;;;;;;;10.00;5.55;;;;;;;2.65;83.55;99489.22;4120737;28;20389;-83
2022/02/27 02:15:57;;;;;;;8.75;4.70;;;;;;;2.67;83.31;99485.72;4106603;28;20708;-84
2022/02/27 02:18:12;;;;;;;11.35;5.03;;;;;;;2.66;83.44;99499.50;4100675;28;20217;-83
2022/02/27 02:20:17;;;;;;;12.02;4.15;;;;;;;2.67;83.34;99487.47;4122021;28;20207;-83
2022/02/27 02:22:29;;;;;;;8.35;4.70;;;;;;;2.67;82.97;99483.16;4122066;28;20218;-83
2022/02/27 02:24:32;;;;;;;11.35;4.95;;;;;;;2.67;83.33;99480.59;4122309;28;20295;-83
2022/02/27 02:26:37;;;;;;;9.15;4.70;;;;;;;2.67;83.25;99475.44;4119113;28;20225;-83
2022/02/27 02:28:40;;;;;;;9.70;4.75;;;;;;;2.68;83.31;99477.16;4126237;28;20264;-83
2022/02/27 02:30:43;;;;;;;20.25;5.03;;;;;;;2.67;83.28;99474.59;4114924;28;20208;-83
2022/02/27 02:32:49;;;;;;;8.82;4.40;;;;;;;2.72;83.34;99476.22;4122714;28;20259;-83
2022/02/27 02:34:52;;;;;;;9.77;4.55;;;;;;;2.67;83.17;99475.44;4117663;28;20210;-84
2022/02/27 02:36:57;;;;;;;11.27;4.65;;;;;;;2.68;83.26;99478.88;4124293;28;20297;-83
2022/02/27 02:39:01;;;;;;;8.10;4.30;;;;;;;2.66;83.59;99473.75;4127417;28;20295;-84
2022/02/27 02:41:04;;;;;;;8.55;4.28;;;;;;;2.70;83.18;99480.53;4124205;28;20209;-83
2022/02/27 02:43:08;;;;;;;12.68;4.72;;;;;;;2.73;82.95;99469.34;4105508;28;20221;-84
2022/02/27 02:45:12;;;;;;;9.57;4.95;;;;;;;2.75;83.16;99473.59;4125538;28;20863;-84
2022/02/27 02:47:17;;;;;;;13.27;5.38;;;;;;;2.75;82.73;99465.00;4127570;28;20233;-83
2022/02/27 02:49:25;;;;;;;10.23;4.60;;;;;;;2.77;82.61;99469.28;4127021;28;20204;-84
2022/02/27 02:51:29;;;;;;;10.85;5.22;;;;;;;2.79;83.11;99475.25;4108710;28;20223;-84
2022/02/27 02:53:38;;;;;;;11.00;5.10;;;;;;;2.75;82.62;99471.00;4121036;28;20216;-83
2022/02/27 02:55:42;;;;;;;8.80;4.65;;;;;;;2.74;82.86;99466.75;4106832;28;20613;-84
2022/02/27 02:57:45;;;;;;;13.05;5.03;;;;;;;2.69;83.11;99452.22;4123567;28;20676;-84
2022/02/27 02:59:48;;;;;;;12.73;5.38;;;;;;;2.69;83.04;99459.97;4123349;28;20314;-84
2022/02/27 03:01:52;;;;;;;9.85;5.55;;;;;;;2.69;83.10;99452.22;4126547;28;20204;-84
2022/02/27 03:03:57;;;;;;;9.63;4.72;;;;;;;2.67;83.39;99446.28;4107610;28;20634;-84
2022/02/27 03:06:00;;;;;;;11.23;4.80;;;;;;;2.66;83.48;99449.72;4123580;28;20204;-84
2022/02/27 03:08:04;;;;;;;11.02;5.18;;;;;;;2.62;83.64;99456.63;4122527;28;20246;-83
2022/02/27 03:10:10;;;;;;;9.48;5.03;;;;;;;2.64;83.73;99452.31;4124504;28;20216;-84
2022/02/27 03:12:13;;;;;;;10.00;5.35;;;;;;;2.59;84.12;99445.56;4130186;28;20212;-84
2022/02/27 03:14:16;;;;;;;10.20;4.85;;;;;;;2.60;84.04;99444.66;4103529;28;20210;-84
2022/02/27 03:16:19;;;;;;;9.82;4.95;;;;;;;2.58;84.26;99454.97;4106376;28;20593;-84
2022/02/27 03:18:22;;;;;;;13.57;5.65;;;;;;;2.53;84.51;99451.63;4107304;28;20368;-83
2022/02/27 03:20:25;;;;;;;13.05;5.57;;;;;;;2.49;84.66;99446.53;4121439;28;20836;-84
2022/02/27 03:22:28;;;;;;;15.82;6.38;;;;;;;2.48;84.85;99449.97;4122640;28;20254;-84
2022/02/27 03:24:31;;;;;;;13.52;5.72;;;;;;;2.46;84.64;99455.16;4121533;28;20216;-83
2022/02/27 03:26:37;;;;;;;11.93;5.72;;;;;;;2.44;84.81;99453.50;4121029;28;20312;-83
2022/02/27 03:28:40;;;;;;;10.70;5.68;;;;;;;2.38;84.99;99445.88;4120098;28;20200;-83
2022/02/27 03:30:44;;;;;;;11.25;5.57;;;;;;;2.37;85.22;99451.88;4104630;28;20260;-84
2022/02/27 03:32:47;;;;;;;14.15;5.63;;;;;;;2.36;85.01;99453.59;4121999;28;20248;-83
2022/02/27 03:34:50;;;;;;;8.45;4.93;;;;;;;2.34;85.19;99444.19;4128317;28;20760;-83
2022/02/27 03:36:54;;;;;;;11.02;5.90;;;;;;;2.32;85.12;99445.13;4118006;28;20210;-83
2022/02/27 03:38:57;;;;;;;13.05;6.45;;;;;;;2.32;85.29;99457.97;4121271;28;21634;-84
2022/02/27 03:41:00;;;;;;;11.95;5.38;;;;;;;2.28;85.50;99448.59;4123717;28;20668;-84
2022/02/27 03:43:04;;;;;;;9.02;5.05;;;;;;;2.30;85.35;99447.72;4121978;28;20295;-83
2022/02/27 03:45:08;;;;;;;11.48;5.78;;;;;;;2.31;85.41;99449.38;4137294;28;20250;-83
2022/02/27 03:47:11;;;;;;;12.07;5.80;;;;;;;2.29;85.35;99453.72;4122422;28;20224;-83
2022/02/27 03:49:14;;;;;;;14.10;5.70;;;;;;;2.28;85.58;99453.72;4125242;28;20212;-83
2022/02/27 03:51:17;;;;;;;9.57;5.75;;;;;;;2.28;85.53;99453.72;4119469;28;20244;-83
2022/02/27 03:53:22;;;;;;;11.85;5.93;;;;;;;2.29;85.19;99452.88;4118897;28;20216;-84
2022/02/27 03:55:25;;;;;;;18.25;5.78;;;;;;;2.31;85.60;99451.13;4121468;28;20201;-83
2022/02/27 03:57:28;;;;;;;10.15;5.78;;;;;;;2.31;85.15;99449.38;4126098;28;20204;-83
2022/02/27 03:59:32;;;;;;;16.88;5.85;;;;;;;2.28;85.42;99449.44;4125920;28;20216;-83
2022/02/27 04:01:35;;;;;;;15.20;5.78;;;;;;;2.29;85.54;99450.31;4121505;28;20799;-84
2022/02/27 04:03:39;;;;;;;13.38;5.75;;;;;;;2.29;85.43;99460.59;4121784;28;20217;-84
2022/02/27 04:05:42;;;;;;;11.13;5.55;;;;;;;2.24;85.12;99458.09;4109038;28;20262;-83
2022/02/27 04:07:46;;;;;;;16.35;6.13;;;;;;;2.24;85.19;99458.09;4130699;28;20236;-83
2022/02/27 04:09:49;;;;;;;8.80;5.05;;;;;;;2.20;85.25;99465.88;4126826;28;20209;-83
2022/02/27 04:11:52;;;;;;;12.75;5.63;;;;;;;2.23;85.54;99458.09;4132388;28;20203;-84
2022/02/27 04:13:57;;;;;;;11.13;5.32;;;;;;;2.25;85.34;99471.78;4126117;28;20216;-85
2022/02/27 04:16:01;;;;;;;13.02;5.80;;;;;;;2.24;85.47;99463.22;4115297;28;20209;-84
2022/02/27 04:18:04;;;;;;;12.40;5.43;;;;;;;2.23;85.18;99474.38;4122400;28;20304;-83
2022/02/27 04:20:09;;;;;;;13.70;6.18;;;;;;;2.25;85.05;99469.22;4122935;28;20216;-84
2022/02/27 04:22:12;;;;;;;10.23;6.30;;;;;;;2.22;85.03;99482.13;4126122;28;20213;-84
2022/02/27 04:24:16;;;;;;;11.77;6.05;;;;;;;2.23;84.99;99471.81;4103445;28;20209;-84
2022/02/27 04:26:19;;;;;;;12.60;5.80;;;;;;;2.30;85.01;99473.44;4122113;28;20234;-84
2022/02/27 04:28:22;;;;;;;13.90;6.15;;;;;;;2.30;85.14;99475.13;4111081;28;20249;-84
2022/02/27 04:30:25;;;;;;;11.57;6.15;;;;;;;2.26;85.32;99474.34;4121268;28;20208;-84
2022/02/27 04:32:30;;;;;;;10.25;6.00;;;;;;;2.29;84.98;99476.03;4118027;28;20224;-84
2022/02/27 04:34:33;;;;;;;11.45;6.13;;;;;;;2.27;85.26;99478.63;4121493;28;20216;-84
2022/02/27 04:36:36;;;;;;;14.55;5.55;;;;;;;2.23;85.44;99476.94;4122261;28;20275;-84
2022/02/27 04:38:39;;;;;;;10.90;5.88;;;;;;;2.24;85.24;99477.78;4121650;28;20665;-84
2022/02/27 04:40:42;;;;;;;10.82;5.55;;;;;;;2.26;84.92;99481.22;4125163;28;20231;-84
2022/02/27 04:42:45;;;;;;;16.35;7.07;;;;;;;2.22;84.97;99485.53;4126324;28;20239;-84
2022/02/27 04:44:48;;;;;;;13.95;6.20;;;;;;;2.19;85.46;99479.59;4123656;28;20220;-84
2022/02/27 04:46:51;;;;;;;10.35;5.35;;;;;;;2.17;85.32;99478.75;4121650;28;20200;-84
2022/02/27 04:48:55;;;;;;;13.15;6.13;;;;;;;2.18;85.37;99483.00;4116169;28;20233;-84
2022/02/27 04:50:58;;;;;;;10.05;6.10;;;;;;;2.17;85.37;99478.75;4117822;28;20205;-84
2022/02/27 04:53:01;;;;;;;11.90;6.25;;;;;;;2.17;85.20;99474.47;4121727;28;20284;-84
2022/02/27 04:55:05;;;;;;;10.50;5.93;;;;;;;2.19;85.54;99479.59;4119348;28;20204;-83
2022/02/27 04:57:09;;;;;;;11.48;5.97;;;;;;;2.14;85.62;99479.66;4134662;28;20211;-84
2022/02/27 04:59:12;;;;;;;14.05;6.00;;;;;;;2.11;85.36;99473.69;4106448;28;20674;-84
2022/02/27 05:01:15;;;;;;;9.70;6.00;;;;;;;2.12;85.69;99478.81;4119408;28;20236;-83
2022/02/27 05:03:19;;;;;;;11.52;6.70;;;;;;;2.12;85.32;99478.81;4126007;28;20732;-83
2022/02/27 05:05:23;;;;;;;10.30;5.22;;;;;;;2.14;85.73;99483.94;4102277;28;20686;-83
2022/02/27 05:07:27;;;;;;;13.77;5.93;;;;;;;2.13;85.24;99484.81;4122700;28;20224;-84
2022/02/27 05:09:30;;;;;;;13.30;5.63;;;;;;;2.17;85.20;99486.47;4119903;28;20219;-83
2022/02/27 05:11:33;;;;;;;13.55;6.25;;;;;;;2.19;85.11;99482.16;4123658;28;20577;-83
2022/02/27 05:13:36;;;;;;;10.02;5.80;;;;;;;2.23;84.73;99484.66;4121764;28;20208;-83
2022/02/27 05:15:39;;;;;;;9.63;6.03;;;;;;;2.23;85.11;99486.41;4123637;28;20213;-83
2022/02/27 05:17:42;;;;;;;12.05;6.32;;;;;;;2.25;84.94;99477.78;4124067;28;20210;-83
2022/02/27 05:19:45;;;;;;;12.15;5.93;;;;;;;2.26;84.71;99486.38;4112901;28;20197;-83
2022/02/27 05:21:50;;;;;;;11.82;5.72;;;;;;;2.24;84.38;99478.66;4117970;28;20829;-84
2022/02/27 05:23:53;;;;;;;12.07;6.00;;;;;;;2.24;84.49;99480.38;4118349;28;20238;-83
2022/02/27 05:25:58;;;;;;;15.70;6.70;;;;;;;2.25;84.74;99482.06;4120381;28;20201;-83
2022/02/27 05:28:01;;;;;;;14.18;6.20;;;;;;;2.27;84.65;99480.31;4187454;28;20288;-84
2022/02/27 05:30:05;;;;;;;11.40;6.32;;;;;;;2.26;84.39;99482.06;4123703;28;20219;-83
2022/02/27 05:32:09;;;;;;;14.82;5.22;;;;;;;2.27;84.29;99488.03;4119478;28;20259;-83
2022/02/27 05:34:12;;;;;;;11.95;6.35;;;;;;;2.27;84.06;99490.63;4117238;28;20213;-83
2022/02/27 05:36:15;;;;;;;10.90;6.05;;;;;;;2.24;84.49;99493.22;4119553;28;20208;-83
2022/02/27 05:38:19;;;;;;;11.70;5.82;;;;;;;2.22;84.51;99490.69;4138276;28;20250;-83
2022/02/27 05:40:22;;;;;;;9.60;5.90;;;;;;;2.20;84.33;99501.88;4117255;28;20668;-83
2022/02/27 05:42:25;;;;;;;16.15;6.75;;;;;;;2.16;84.18;99503.63;4120752;28;20213;-83
2022/02/27 05:44:28;;;;;;;10.35;6.30;;;;;;;2.15;84.68;99506.22;4117712;28;20235;-83
2022/02/27 05:46:31;;;;;;;13.65;6.65;;;;;;;2.12;84.93;99507.13;4114376;28;20786;-83
2022/02/27 05:48:34;;;;;;;14.00;6.15;;;;;;;2.12;84.71;99495.97;4117051;28;20217;-84
2022/02/27 05:50:38;;;;;;;12.88;6.35;;;;;;;2.14;84.85;99510.50;4118249;28;20270;-83
2022/02/27 05:52:41;;;;;;;11.55;6.70;;;;;;;2.11;84.55;99502.84;4119933;28;20209;-83
2022/02/27 05:54:45;;;;;;;14.80;6.93;;;;;;;2.10;84.46;99506.25;4106857;28;20384;-83
2022/02/27 05:56:48;;;;;;;15.02;6.85;;;;;;;2.09;85.04;99503.72;4120824;28;20236;-83
2022/02/27 05:58:52;;;;;;;16.35;6.60;;;;;;;2.06;84.73;99508.91;4121727;28;20668;-83
2022/02/27 06:00:55;;;;;;;11.60;7.10;;;;;;;2.04;84.71;99505.50;4117287;28;20295;-83
2022/02/27 06:02:58;;;;;;;14.30;6.55;;;;;;;2.07;84.75;99506.31;4105204;28;20783;-83
2022/02/27 06:05:02;;;;;;;12.25;6.63;;;;;;;2.05;85.01;99508.06;4123667;28;20549;-83
2022/02/27 06:07:05;;;;;;;14.75;7.80;;;;;;;2.03;85.61;99512.38;4121411;28;20212;-83
2022/02/27 06:09:08;;;;;;;17.50;7.05;;;;;;;2.01;84.99;99514.09;4125342;28;20216;-83
2022/02/27 06:11:12;;;;;;;9.93;6.28;;;;;;;2.03;85.84;99516.66;4120195;28;20676;-83
2022/02/27 06:13:15;;;;;;;13.48;8.65;;;;;;;1.99;85.70;99518.41;4131240;28;20607;-83
2022/02/27 06:15:18;;;;;;;15.50;7.38;;;;;;;2.01;85.83;99515.81;4121115;28;20295;-84
2022/02/27 06:17:21;;;;;;;16.42;6.78;;;;;;;2.01;85.60;99523.53;4115113;28;20224;-83
2022/02/27 06:19:24;;;;;;;16.23;6.80;;;;;;;1.98;85.63;99528.72;4123223;28;20235;-83
2022/02/27 06:21:27;;;;;;;11.52;6.80;;;;;;;1.95;85.51;99521.03;4125687;28;20616;-83
2022/02/27 06:23:30;;;;;;;14.40;6.70;;;;;;;1.99;85.69;99535.56;4117117;28;20262;-83
2022/02/27 06:25:37;;;;;;;12.77;6.65;;;;;;;1.93;85.87;99521.06;4125368;28;20209;-83
2022/02/27 06:27:43;;;;;;;14.48;7.35;;;;;;;1.92;86.12;99523.66;4103614;28;20214;-83
2022/02/27 06:29:46;;;;;;;14.63;7.60;;;;;;;1.97;86.31;99527.88;4120358;28;20226;-83
2022/02/27 06:31:49;;;;;;;14.20;7.20;;;;;;;2.09;86.25;99525.16;4124991;28;20625;-83
2022/02/27 06:33:53;;;;;;;13.43;6.60;;;;;;;2.21;86.03;99530.16;4123771;28;20232;-83
2022/02/27 06:35:56;;;;;;;14.05;7.15;;;;;;;2.33;85.32;99529.13;4120935;28;20300;-83
2022/02/27 06:38:00;;;;;;;14.43;6.82;;;;;;;2.50;85.08;99526.31;4126431;28;20212;-83
2022/02/27 06:40:05;;;;;;;12.25;6.88;;;;;;;2.61;84.59;99527.00;4120848;28;20240;-84
2022/02/27 06:42:08;;;;;;;12.70;7.03;;;;;;;2.75;84.25;99529.38;4101470;28;20240;-83
2022/02/27 06:44:12;;;;;;;16.50;7.43;;;;;;;2.87;83.60;99532.63;4134323;28;20615;-83
2022/02/27 06:46:15;;;;;;;12.43;7.22;;;;;;;2.97;83.00;99526.47;4119082;28;20201;-83
2022/02/27 06:48:18;;;;;;;11.00;6.82;;;;;;;3.09;82.62;99526.28;4123728;28;20277;-83
2022/02/27 06:50:23;;;;;;;14.68;7.15;;;;;;;3.20;82.69;99529.53;4104630;28;20212;-83
2022/02/27 06:52:26;;;;;;;9.77;6.93;;;;;;;3.29;82.23;99533.66;4124497;28;20672;-83
2022/02/27 06:54:29;;;;;;;12.20;7.05;;;;;;;3.42;81.86;99530.00;4125509;28;20578;-83
2022/02/27 06:56:32;;;;;;;12.32;6.90;;;;;;;3.52;81.64;99528.97;4123701;28;20243;-83
2022/02/27 06:58:35;;;;;;;13.50;6.82;;;;;;;3.63;80.51;99536.50;4125331;28;20265;-83
2022/02/27 07:00:40;;;;;;;12.93;7.40;;;;;;;3.72;80.64;99538.94;4136604;28;20637;-83
2022/02/27 07:02:44;;;;;;;14.75;7.10;;;;;;;3.75;80.74;99537.97;4122485;28;20288;-83
2022/02/27 07:04:48;;;;;;;11.65;6.63;;;;;;;3.84;79.26;99531.81;4129058;28;20201;-83
2022/02/27 07:06:51;;;;;;;12.05;7.63;;;;;;;3.98;79.29;99535.81;4131092;28;20238;-84
2022/02/27 07:08:54;;;;;;;10.27;6.72;;;;;;;4.09;79.37;99545.91;4121997;28;20249;-83
2022/02/27 07:11:02;;;;;;;13.23;7.25;;;;;;;4.19;78.38;99537.97;4126470;28;20208;-83
2022/02/27 07:13:06;;;;;;;11.10;6.95;;;;;;;4.29;79.08;99535.16;4126040;28;20204;-84
2022/02/27 07:15:09;;;;;;;12.20;6.60;;;;;;;4.46;77.41;99542.56;4121576;28;20299;-86
2022/02/27 07:17:14;;;;;;;11.02;6.70;;;;;;;4.46;77.12;99556.31;4124414;28;20267;-86
2022/02/27 07:19:17;;;;;;;11.05;7.10;;;;;;;4.59;77.86;99547.44;4122456;28;20794;-86
2022/02/27 07:21:20;;;;;;;9.43;6.13;;;;;;;4.68;76.81;99542.91;4126245;28;20221;-87
2022/02/27 07:23:23;;;;;;;12.27;7.05;;;;;;;4.74;77.46;99552.28;4133927;28;20208;-86
2022/02/27 07:25:26;;;;;;;13.93;7.25;;;;;;;4.84;76.62;99553.75;4119744;28;20696;-87
2022/02/27 07:27:29;;;;;;;11.43;6.82;;;;;;;5.03;76.83;99560.22;4126706;28;20201;-85
2022/02/27 07:29:33;;;;;;;13.05;6.45;;;;;;;5.10;76.57;99557.47;4122739;28;20775;-86
2022/02/27 07:31:36;;;;;;;10.50;6.90;;;;;;;5.13;75.37;99566.00;4125623;28;20636;-88
2022/02/27 07:33:40;;;;;;;13.40;7.18;;;;;;;5.21;74.84;99563.22;4121154;28;20968;-92
2022/02/27 07:35:43;;;;;;;11.40;6.30;;;;;;;5.22;75.36;99563.19;4125621;28;20635;-87
2022/02/27 07:37:47;;;;;;;11.77;6.70;;;;;;;5.40;74.82;99569.69;4128177;28;20200;-87
2022/02/27 07:39:50;;;;;;;15.32;7.60;;;;;;;5.44;75.51;99563.53;4109004;28;20288;-87
2022/02/27 07:41:53;;;;;;;10.02;6.28;;;;;;;5.48;75.15;99567.75;4121153;28;20295;-90
2022/02/27 07:44:01;;;;;;;10.65;7.45;;;;;;;5.48;74.65;99568.56;4107121;28;20212;-84
2022/02/27 07:46:04;;;;;;;9.15;6.30;;;;;;;5.50;74.75;99571.97;4125515;28;20207;-84
2022/02/27 07:48:07;;;;;;;10.82;6.95;;;;;;;5.59;75.03;99576.91;4112665;28;20205;-84
2022/02/27 07:50:11;;;;;;;11.25;7.40;;;;;;;5.64;74.29;99570.75;4121756;28;20685;-84
2022/02/27 07:52:15;;;;;;;12.70;7.07;;;;;;;5.75;73.92;99580.88;4121958;28;20265;-84
2022/02/27 07:54:18;;;;;;;15.45;7.05;;;;;;;5.86;73.55;99589.19;4125726;28;20231;-85
2022/02/27 07:56:21;;;;;;;10.07;7.03;;;;;;;6.02;74.10;99575.81;4115934;28;20221;-84
2022/02/27 07:58:23;;;;;;;11.57;7.57;;;;;;;6.21;72.84;99580.47;4103729;28;20218;-85
2022/02/27 08:00:27;;;;;;;16.73;6.95;;;;;;;6.13;72.86;99577.25;4125394;28;20209;-86
2022/02/27 08:02:30;;;;;;;12.15;6.80;;;;;;;6.14;72.67;99578.91;4128598;28;20201;-85
2022/02/27 08:04:33;;;;;;;12.77;7.88;;;;;;;6.26;72.82;99583.75;4127306;28;20206;-87
2022/02/27 08:06:37;;;;;;;16.17;8.07;;;;;;;6.35;72.72;99587.84;4132651;28;20214;-86
2022/02/27 08:08:41;;;;;;;11.10;6.30;;;;;;;6.36;72.61;99586.94;4139650;28;20238;-85
2022/02/27 08:10:44;;;;;;;16.05;7.63;;;;;;;6.39;72.84;99582.53;4108758;28;20232;-88
2022/02/27 08:12:47;;;;;;;12.88;7.47;;;;;;;6.39;71.72;99586.84;4128229;28;20206;-85
2022/02/27 08:14:50;;;;;;;13.07;7.18;;;;;;;6.47;72.16;99585.75;4130792;28;20237;-88
2022/02/27 08:16:53;;;;;;;16.65;7.47;;;;;;;6.51;71.71;99592.56;4131402;28;20211;-91
2022/02/27 08:18:56;;;;;;;12.40;7.00;;;;;;;6.59;71.71;99595.78;4125229;28;20742;-85
2022/02/27 08:20:59;;;;;;;9.98;7.30;;;;;;;6.69;70.86;99592.88;4102433;28;20267;-84
2022/02/27 08:23:03;;;;;;;11.60;7.47;;;;;;;6.74;70.01;99598.78;4131303;28;20213;-86
2022/02/27 08:25:08;;;;;;;9.75;6.72;;;;;;;6.73;70.70;99604.00;4128172;28;20259;-86
2022/02/27 08:27:11;;;;;;;11.35;7.22;;;;;;;6.97;70.45;99613.66;4111909;28;20725;-86
2022/02/27 08:29:14;;;;;;;12.63;7.20;;;;;;;7.04;70.02;99606.50;4137142;28;20670;-86
2022/02/27 08:31:17;;;;;;;11.68;6.97;;;;;;;7.03;69.53;99603.94;4128720;28;20607;-85
2022/02/27 08:33:21;;;;;;;10.10;6.75;;;;;;;7.15;68.57;99613.94;4130152;28;20209;-86
2022/02/27 08:35:24;;;;;;;11.35;7.10;;;;;;;7.20;69.87;99623.31;4128596;28;20240;-85
2022/02/27 08:37:27;;;;;;;9.20;6.10;;;;;;;7.32;69.11;99602.16;4131916;28;20206;-86
2022/02/27 08:39:32;;;;;;;9.85;6.75;;;;;;;7.39;68.75;99603.66;4124800;28;20204;-86
2022/02/27 08:41:36;;;;;;;10.52;6.00;;;;;;;7.44;67.86;99619.09;4121574;28;20221;-88
2022/02/27 08:43:39;;;;;;;10.25;6.07;;;;;;;7.45;68.99;99615.59;4119796;28;20214;-87
2022/02/27 08:45:42;;;;;;;9.32;5.78;;;;;;;7.49;68.77;99616.28;4119050;28;20214;-85
2022/02/27 08:47:45;;;;;;;11.93;6.55;;;;;;;7.65;69.46;99621.84;4129564;28;20667;-89
2022/02/27 08:49:48;;;;;;;9.02;5.97;;;;;;;7.80;66.92;99616.16;4127347;28;20643;-89
2022/02/27 08:51:52;;;;;;;12.05;6.20;;;;;;;7.98;67.43;99625.03;4117580;28;20262;-87
2022/02/27 08:53:56;;;;;;;9.98;6.47;;;;;;;7.94;67.25;99629.53;4116115;28;20273;-88
2022/02/27 08:56:00;;;;;;;15.45;7.38;;;;;;;7.96;66.32;99602.59;4126638;28;20201;-89
2022/02/27 08:58:03;;;;;;;9.05;5.57;;;;;;;8.18;68.09;99614.00;4116475;28;20684;-87
2022/02/27 09:00:09;;;;;;;8.75;5.45;;;;;;;8.29;65.48;99607.53;4121273;28;20669;-88
2022/02/27 09:02:13;;;;;;;9.40;6.03;;;;;;;8.34;66.95;99615.16;4125256;28;20680;-88
2022/02/27 09:04:22;;;;;;;9.55;6.03;;;;;;;8.45;66.54;99606.09;4127017;28;20205;-88
2022/02/27 09:06:25;;;;;;;7.88;5.78;;;;;;;8.51;66.79;99611.06;4128014;28;20203;-87
2022/02/27 09:08:29;;;;;;;14.88;6.05;;;;;;;8.64;65.82;99610.53;4126723;28;20212;-87
2022/02/27 09:10:32;;;;;;;16.15;7.78;;;;;;;8.81;66.84;99609.94;4120377;28;20217;-88
2022/02/27 09:12:37;;;;;;;9.63;6.40;;;;;;;8.87;65.01;99607.97;4123401;28;20576;-87
2022/02/27 09:14:41;;;;;;;7.97;5.88;;;;;;;8.71;65.08;99609.44;4122661;28;20274;-88
2022/02/27 09:16:44;;;;;;;8.45;5.75;;;;;;;8.62;64.73;99599.38;4117442;28;20212;-86
2022/02/27 09:18:47;;;;;;;9.35;5.68;;;;;;;8.74;65.15;99600.69;4116185;28;20563;-85
2022/02/27 09:20:50;;;;;;;7.57;6.22;;;;;;;8.72;64.37;99605.94;4126673;28;20649;-86
2022/02/27 09:22:55;;;;;;;6.72;5.63;;;;;;;8.54;63.37;99592.78;4109215;28;20222;-88
2022/02/27 09:24:58;;;;;;;7.82;5.75;;;;;;;8.58;63.51;99599.53;4128277;28;20204;-87
2022/02/27 09:27:01;;;;;;;12.57;8.07;;;;;;;8.09;63.48;99599.53;4119714;28;20265;-89
2022/02/27 09:29:05;;;;;;;12.38;7.95;;;;;;;8.16;65.10;99606.28;4112078;28;20213;-89
2022/02/27 09:31:09;;;;;;;10.13;5.80;;;;;;;8.30;65.31;99609.22;4103087;28;20610;-89
2022/02/27 09:33:12;;;;;;;10.63;5.13;;;;;;;8.34;64.64;99626.41;4107789;28;20639;-87
2022/02/27 09:35:15;;;;;;;6.97;5.40;;;;;;;8.44;63.31;99603.53;4124025;28;20209;-88
2022/02/27 09:37:18;;;;;;;10.65;5.55;;;;;;;8.22;63.86;99602.59;4129840;28;20760;-88
2022/02/27 09:39:22;;;;;;;8.18;4.80;;;;;;;8.17;63.21;99623.53;4114101;28;20315;-88
2022/02/27 09:41:25;;;;;;;9.18;5.32;;;;;;;8.11;63.79;99607.28;4124473;28;20623;-89
2022/02/27 09:43:30;;;;;;;8.43;4.80;;;;;;;8.19;65.47;99600.94;4126403;28;20209;-88
2022/02/27 09:45:35;;;;;;;7.97;4.82;;;;;;;8.42;63.75;99590.59;4104154;28;20209;-86